Time;durP1;ratioP1;P1;durP2;ratioP2;P2;SDS_P1;SDS_P2;PMS_P1;PMS_P2;Temp;Humidity;BMP_temperature;BMP_pressure;BME280_temperature;BME280_humidity;BME280_pressure;Samples;Min_cycle;Max_cycle;Signal;HPM_P1;HPM_P2
2022/06/12 00:01:10;;;;;;;6.20;5.17;;;19.70;99.90;;;;;;5033835;28;20548;-56
2022/06/12 00:03:39;;;;;;;7.13;4.97;;;19.60;99.90;;;;;;5033436;28;20533;-56
2022/06/12 00:06:08;;;;;;;6.03;5.03;;;19.50;99.90;;;;;;5033744;28;20565;-56
2022/06/12 00:08:38;;;;;;;5.63;5.03;;;19.50;99.90;;;;;;5033657;28;20461;-56
2022/06/12 00:11:07;;;;;;;5.80;5.30;;;19.50;99.90;;;;;;5033182;28;20580;-55
2022/06/12 00:13:38;;;;;;;6.23;5.63;;;19.50;99.90;;;;;;5033773;28;20450;-56
2022/06/12 00:16:07;;;;;;;6.30;5.70;;;19.50;99.90;;;;;;5033322;28;20453;-56
2022/06/12 00:18:35;;;;;;;7.77;6.47;;;19.50;99.90;;;;;;5033311;28;20937;-56
2022/06/12 00:21:13;;;;;;;9.43;6.50;;;19.50;99.90;;;;;;5033273;28;20537;-56
2022/06/12 00:23:46;;;;;;;10.53;6.33;;;19.50;99.90;;;;;;5033725;28;20438;-56
2022/06/12 00:26:18;;;;;;;6.13;5.53;;;19.50;99.90;;;;;;5023513;28;20447;-56
2022/06/12 00:28:45;;;;;;;7.67;5.87;;;19.50;99.90;;;;;;5013710;28;20471;-56
2022/06/12 00:31:12;;;;;;;6.80;6.20;;;19.30;99.90;;;;;;5013302;28;20518;-56
2022/06/12 00:33:40;;;;;;;7.80;6.00;;;19.30;99.90;;;;;;5013445;28;20946;-56
2022/06/12 00:36:08;;;;;;;9.43;6.07;;;19.30;99.90;;;;;;5013773;28;20444;-56
2022/06/12 00:38:39;;;;;;;6.00;5.43;;;19.30;99.90;;;;;;5013291;28;20993;-56
2022/06/12 00:41:06;;;;;;;5.37;4.97;;;19.30;99.90;;;;;;5014059;28;20443;-56
2022/06/12 00:43:33;;;;;;;6.30;5.80;;;19.30;99.90;;;;;;5013680;28;20536;-56
2022/06/12 00:46:03;;;;;;;8.93;6.43;;;19.10;99.90;;;;;;5014483;28;20435;-56
2022/06/12 00:48:33;;;;;;;6.67;5.90;;;19.10;99.90;;;;;;5017699;28;20459;-56
2022/06/12 00:51:04;;;;;;;6.63;6.03;;;19.10;99.90;;;;;;5017908;28;20483;-56
2022/06/12 00:53:37;;;;;;;6.67;5.97;;;19.10;99.90;;;;;;5017217;28;20957;-56
2022/06/12 00:56:10;;;;;;;7.20;6.50;;;19.00;99.90;;;;;;5017224;28;20439;-56
2022/06/12 00:58:39;;;;;;;6.20;5.70;;;;;;;;;;5017069;28;20431;-56
2022/06/12 01:01:12;;;;;;;7.00;6.40;;;18.90;99.90;;;;;;5017204;28;20446;-56
2022/06/12 01:06:35;;;;;;;7.17;6.57;;;18.70;99.90;;;;;;5017085;28;20941;-56
2022/06/12 01:09:07;;;;;;;7.57;6.43;;;18.80;99.90;;;;;;5017233;28;20470;-56
2022/06/12 01:11:36;;;;;;;6.87;6.27;;;18.80;99.90;;;;;;5016603;28;20497;-56
2022/06/12 01:14:05;;;;;;;7.00;6.47;;;18.70;99.90;;;;;;5016966;28;20542;-56
2022/06/12 01:16:33;;;;;;;7.50;6.90;;;18.50;99.90;;;;;;5017092;28;20479;-56
2022/06/12 01:19:01;;;;;;;8.30;6.47;;;18.40;99.90;;;;;;5017170;28;20496;-56
2022/06/12 01:22:02;;;;;;;7.03;6.23;;;18.50;99.90;;;;;;5016753;28;20443;-56
2022/06/12 01:24:59;;;;;;;7.70;6.37;;;18.40;99.90;;;;;;5003549;28;20933;-56
2022/06/12 01:27:51;;;;;;;8.23;7.30;;;18.50;99.90;;;;;;5016955;28;20474;-56
2022/06/12 01:30:24;;;;;;;6.87;6.33;;;18.50;99.90;;;;;;5016788;28;20573;-56
2022/06/12 01:33:00;;;;;;;8.13;6.97;;;18.50;99.90;;;;;;5016955;28;20439;-56
2022/06/12 01:35:39;;;;;;;8.60;7.53;;;18.40;99.90;;;;;;5016508;28;20533;-56
2022/06/12 01:38:17;;;;;;;8.03;7.23;;;18.40;99.90;;;;;;5016528;28;20454;-56
2022/06/12 01:40:56;;;;;;;10.67;7.30;;;18.30;99.90;;;;;;5016484;28;20541;-56
2022/06/12 01:43:31;;;;;;;8.77;6.73;;;18.40;99.90;;;;;;5016367;28;20542;-56
2022/06/12 01:46:06;;;;;;;8.30;7.50;;;18.50;99.90;;;;;;5016453;28;20435;-56
2022/06/12 01:48:49;;;;;;;7.93;7.23;;;18.40;99.90;;;;;;5016354;28;20528;-56
2022/06/12 01:51:21;;;;;;;7.37;6.73;;;18.40;99.90;;;;;;5016452;28;20470;-56
2022/06/12 01:53:58;;;;;;;7.13;6.43;;;18.50;99.90;;;;;;5016593;28;20522;-56
2022/06/12 01:56:32;;;;;;;9.40;7.67;;;18.40;99.90;;;;;;5027821;28;20452;-56
2022/06/12 01:59:07;;;;;;;8.70;7.73;;;18.20;99.90;;;;;;5034878;28;20470;-56
2022/06/12 02:01:41;;;;;;;6.63;6.13;;;18.10;99.90;;;;;;5036217;28;20844;-56
2022/06/12 02:04:16;;;;;;;7.03;6.43;;;18.20;99.90;;;;;;5035892;28;20464;-56
2022/06/12 02:06:56;;;;;;;8.70;7.60;;;18.30;99.90;;;;;;5035826;28;20521;-56
2022/06/12 02:09:28;;;;;;;8.67;7.97;;;18.30;99.90;;;;;;5035612;28;20478;-56
2022/06/12 02:14:50;;;;;;;9.40;7.63;;;18.10;99.90;;;;;;5035784;28;20841;-56
2022/06/12 02:17:24;;;;;;;11.27;6.77;;;18.20;99.90;;;;;;5035947;28;20513;-56
2022/06/12 02:19:53;;;;;;;8.23;7.50;;;18.10;99.90;;;;;;5035382;28;20466;-56
2022/06/12 02:22:24;;;;;;;7.40;6.70;;;18.10;99.90;;;;;;5035815;28;20447;-56
2022/06/12 02:24:56;;;;;;;6.97;6.13;;;18.10;99.90;;;;;;5035445;28;20439;-56
2022/06/12 02:27:29;;;;;;;7.63;6.03;;;18.20;99.90;;;;;;5035617;28;20492;-56
2022/06/12 02:29:59;;;;;;;7.77;7.17;;;18.20;99.90;;;;;;5035148;28;20469;-56
2022/06/12 02:32:34;;;;;;;7.77;7.00;;;18.20;99.90;;;;;;5035178;28;20446;-56
2022/06/12 02:35:06;;;;;;;8.50;7.70;;;18.20;99.90;;;;;;5035270;28;20524;-56
2022/06/12 02:37:39;;;;;;;8.60;7.10;;;18.10;99.90;;;;;;5035033;28;20513;-56
2022/06/12 02:40:12;;;;;;;7.73;7.03;;;18.10;99.90;;;;;;5035460;28;20824;-57
2022/06/12 02:42:45;;;;;;;7.97;7.13;;;18.10;99.90;;;;;;5035360;28;20441;-56
2022/06/12 02:45:17;;;;;;;7.90;7.00;;;18.10;99.90;;;;;;5035439;28;20442;-56
2022/06/12 02:47:48;;;;;;;9.73;7.90;;;18.10;99.90;;;;;;5035236;28;20435;-56
2022/06/12 02:50:21;;;;;;;9.57;7.70;;;18.00;99.90;;;;;;5034844;28;20573;-56
2022/06/12 02:52:56;;;;;;;7.93;7.20;;;18.00;99.90;;;;;;5035174;28;20819;-56
2022/06/12 02:55:35;;;;;;;9.57;7.53;;;18.00;99.90;;;;;;5034640;28;20448;-56
2022/06/12 02:58:11;;;;;;;7.23;6.63;;;18.00;99.90;;;;;;5035433;28;20434;-56
2022/06/12 03:00:44;;;;;;;10.47;6.97;;;17.90;99.90;;;;;;5034913;28;20493;-56
2022/06/12 03:03:23;;;;;;;8.63;6.80;;;17.90;99.90;;;;;;5034711;28;20605;-56
2022/06/12 03:05:52;;;;;;;12.63;8.87;;;17.90;99.90;;;;;;5035006;28;20426;-56
2022/06/12 03:08:23;;;;;;;8.53;7.70;;;17.90;99.90;;;;;;5034256;28;20459;-56
2022/06/12 03:10:53;;;;;;;7.37;6.67;;;17.70;99.90;;;;;;5034546;28;20486;-56
2022/06/12 03:13:25;;;;;;;7.70;6.90;;;17.60;99.90;;;;;;5034429;28;20963;-56
2022/06/12 03:15:56;;;;;;;7.57;6.97;;;17.50;99.90;;;;;;5034872;28;20435;-56
2022/06/12 03:18:27;;;;;;;8.77;7.60;;;17.60;99.90;;;;;;5034474;28;20430;-56
2022/06/12 03:21:13;;;;;;;8.00;7.20;;;17.70;99.90;;;;;;5034731;28;20458;-56
2022/06/12 03:23:54;;;;;;;8.47;7.70;;;17.70;99.90;;;;;;5034561;28;20767;-56
2022/06/12 03:26:28;;;;;;;11.50;6.80;;;17.80;99.90;;;;;;5034052;28;20449;-56
2022/06/12 03:29:04;;;;;;;10.50;6.47;;;17.70;99.90;;;;;;5034191;28;21035;-56
2022/06/12 03:31:36;;;;;;;8.17;7.33;;;17.70;99.90;;;;;;5034147;28;20968;-56
2022/06/12 03:34:11;;;;;;;7.40;6.70;;;17.70;99.90;;;;;;5034137;28;20426;-56
2022/06/12 03:36:46;;;;;;;8.30;6.87;;;17.70;99.90;;;;;;5034132;28;20426;-56
2022/06/12 03:39:17;;;;;;;8.70;6.87;;;17.70;99.90;;;;;;5034302;28;21002;-56
2022/06/12 03:41:53;;;;;;;8.77;7.27;;;17.50;99.90;;;;;;5034009;28;20940;-56
2022/06/12 03:44:29;;;;;;;7.70;7.00;;;17.40;99.90;;;;;;5034184;28;20440;-56
2022/06/12 03:47:05;;;;;;;12.30;7.40;;;17.30;99.90;;;;;;5034147;28;20760;-56
2022/06/12 03:49:43;;;;;;;8.13;7.33;;;17.30;99.90;;;;;;5033827;28;20505;-56
2022/06/12 03:52:19;;;;;;;8.20;7.37;;;17.20;99.90;;;;;;5033647;28;20552;-56
2022/06/12 03:54:52;;;;;;;8.37;7.53;;;17.20;99.90;;;;;;5034033;28;20521;-56
2022/06/12 04:00:17;;;;;;;8.27;7.17;;;17.30;99.90;;;;;;5033629;28;20445;-56
2022/06/12 04:02:46;;;;;;;10.10;7.43;;;17.50;99.90;;;;;;5033884;28;20444;-56
2022/06/12 04:05:22;;;;;;;9.70;8.30;;;17.50;99.90;;;;;;5033818;28;20809;-56
2022/06/12 04:07:52;;;;;;;8.57;7.67;;;17.50;99.90;;;;;;5033327;28;20523;-56
2022/06/12 04:10:23;;;;;;;7.23;6.53;;;17.50;99.90;;;;;;5033486;28;20482;-56
2022/06/12 04:12:51;;;;;;;7.13;6.30;;;17.50;99.90;;;;;;5033869;28;20775;-55
2022/06/12 04:15:23;;;;;;;7.80;7.10;;;17.40;99.90;;;;;;5033438;28;20452;-56
2022/06/12 04:17:51;;;;;;;8.17;7.43;;;17.40;99.90;;;;;;5033331;28;20437;-56
2022/06/12 04:20:23;;;;;;;6.67;5.83;;;17.40;99.90;;;;;;5032704;28;20989;-56
2022/06/12 04:22:55;;;;;;;7.10;6.40;;;17.50;99.90;;;;;;5033529;28;20448;-56
2022/06/12 04:25:31;;;;;;;7.30;6.60;;;17.50;99.90;;;;;;5033423;28;20442;-56
2022/06/12 04:27:58;;;;;;;8.93;7.10;;;17.60;99.90;;;;;;5033491;28;20786;-56
2022/06/12 04:30:28;;;;;;;8.20;6.40;;;17.60;99.90;;;;;;5033369;28;20469;-56
2022/06/12 04:33:16;;;;;;;7.83;7.10;;;17.60;99.90;;;;;;5033316;28;20456;-56
2022/06/12 04:35:49;;;;;;;7.87;6.67;;;17.60;99.90;;;;;;5033090;28;20976;-56
2022/06/12 04:38:16;;;;;;;7.27;6.67;;;17.60;99.90;;;;;;5033513;28;20454;-56
2022/06/12 04:40:44;;;;;;;7.20;6.50;;;17.70;99.90;;;;;;5033241;28;20831;-56
2022/06/12 04:43:11;;;;;;;8.23;7.47;;;17.70;99.90;;;;;;5033124;28;20847;-56
2022/06/12 04:45:40;;;;;;;7.27;6.67;;;17.70;99.90;;;;;;5033283;28;20533;-56
2022/06/12 04:48:11;;;;;;;8.37;6.97;;;17.70;99.90;;;;;;5033420;28;20530;-56
2022/06/12 04:50:38;;;;;;;7.97;6.43;;;17.70;99.90;;;;;;5032854;28;20494;-56
2022/06/12 04:53:07;;;;;;;7.53;6.40;;;17.80;99.90;;;;;;5033358;28;20450;-56
2022/06/12 04:55:34;;;;;;;6.73;6.23;;;17.80;99.90;;;;;;5032706;28;20940;-56
2022/06/12 04:58:02;;;;;;;12.33;6.80;;;17.90;99.90;;;;;;5033316;28;20453;-56
2022/06/12 05:00:29;;;;;;;7.70;7.00;;;17.90;99.90;;;;;;5032782;28;20508;-56
2022/06/12 05:02:57;;;;;;;7.90;7.03;;;17.90;99.90;;;;;;5033228;28;20495;-56
2022/06/12 05:05:25;;;;;;;7.03;6.27;;;18.00;99.90;;;;;;5033161;28;20454;-56
2022/06/12 05:07:52;;;;;;;7.10;6.17;;;18.00;99.90;;;;;;5033168;28;20458;-56
2022/06/12 05:10:21;;;;;;;7.97;7.17;;;18.10;99.90;;;;;;5032786;28;20485;-56
2022/06/12 05:12:49;;;;;;;6.57;6.00;;;18.10;99.90;;;;;;5033135;28;20486;-56
2022/06/12 05:15:17;;;;;;;8.37;7.50;;;18.20;99.90;;;;;;5032783;28;20834;-55
2022/06/12 05:17:48;;;;;;;6.80;6.20;;;18.20;99.90;;;;;;5033134;28;20557;-56
2022/06/12 05:20:20;;;;;;;7.27;6.57;;;18.30;99.90;;;;;;5032678;28;20500;-56
2022/06/12 05:22:48;;;;;;;7.87;6.67;;;18.40;99.90;;;;;;5032856;28;20430;-56
2022/06/12 05:25:16;;;;;;;7.70;7.10;;;18.50;99.90;;;;;;5032532;28;20884;-56
2022/06/12 05:27:46;;;;;;;10.43;7.30;;;18.50;99.90;;;;;;5033081;28;20481;-56
2022/06/12 05:30:15;;;;;;;8.40;7.37;;;18.60;99.90;;;;;;5032594;28;20957;-56
2022/06/12 05:32:43;;;;;;;8.80;8.00;;;18.70;99.90;;;;;;5034646;28;21055;-56
2022/06/12 05:35:11;;;;;;;10.23;7.80;;;18.60;99.90;;;;;;5036254;28;20434;-56
2022/06/12 05:37:39;;;;;;;7.33;6.63;;;18.70;99.90;;;;;;5036291;28;20452;-56
2022/06/12 05:40:11;;;;;;;8.90;8.00;;;18.70;99.90;;;;;;5036467;28;20466;-56
2022/06/12 05:42:38;;;;;;;7.67;6.90;;;18.80;99.90;;;;;;5036278;28;20433;-56
2022/06/12 05:45:12;;;;;;;10.13;7.20;;;18.90;99.90;;;;;;5036378;28;20456;-56
2022/06/12 05:47:46;;;;;;;9.60;7.40;;;19.00;99.90;;;;;;5036539;28;20438;-56
2022/06/12 05:50:13;;;;;;;7.60;7.00;;;19.00;99.90;;;;;;5036296;28;20476;-56
2022/06/12 05:52:41;;;;;;;8.07;7.30;;;19.10;99.90;;;;;;5035933;28;20907;-56
2022/06/12 05:55:09;;;;;;;7.93;7.20;;;19.20;99.90;;;;;;5035959;28;20450;-56
2022/06/12 05:57:36;;;;;;;9.03;8.07;;;19.20;99.90;;;;;;5035976;28;20434;-56
2022/06/12 06:00:05;;;;;;;8.37;7.00;;;19.30;99.90;;;;;;5036057;28;20891;-56
2022/06/12 06:02:34;;;;;;;7.73;7.00;;;19.30;99.90;;;;;;5036154;28;20810;-56
2022/06/12 06:05:02;;;;;;;8.67;7.60;;;19.40;99.90;;;;;;5036020;28;20512;-56
2022/06/12 06:07:29;;;;;;;8.73;7.27;;;19.40;99.90;;;;;;5035976;28;20478;-56
2022/06/12 06:09:56;;;;;;;9.87;7.70;;;19.50;99.90;;;;;;5035669;28;20553;-56
2022/06/12 06:12:23;;;;;;;12.37;8.03;;;19.60;99.90;;;;;;5035696;28;20469;-56
2022/06/12 06:14:51;;;;;;;7.60;6.80;;;19.60;99.90;;;;;;5035823;28;20455;-56
2022/06/12 06:17:18;;;;;;;6.80;6.30;;;19.70;99.90;;;;;;5035944;28;20450;-56
2022/06/12 06:19:47;;;;;;;8.80;7.67;;;19.70;99.90;;;;;;5035492;28;20498;-56
2022/06/12 06:22:17;;;;;;;7.60;6.97;;;19.90;99.90;;;;;;5035804;28;20474;-56
2022/06/12 06:24:44;;;;;;;7.00;6.40;;;19.80;99.90;;;;;;5035864;28;20462;-56
2022/06/12 06:27:12;;;;;;;7.73;6.30;;;19.90;99.90;;;;;;5035562;28;20804;-56
2022/06/12 06:29:40;;;;;;;8.70;7.90;;;20.00;99.90;;;;;;5035179;28;20509;-56
2022/06/12 06:32:09;;;;;;;7.43;6.77;;;20.10;99.90;;;;;;5035753;28;20504;-56
2022/06/12 06:34:36;;;;;;;11.07;6.97;;;20.10;99.90;;;;;;5034991;28;20532;-57
2022/06/12 06:37:06;;;;;;;11.77;6.80;;;20.20;99.90;;;;;;5035554;28;20536;-57
2022/06/12 06:39:34;;;;;;;6.57;6.00;;;20.30;99.90;;;;;;5035668;28;20569;-56
2022/06/12 06:42:01;;;;;;;9.20;6.70;;;20.40;99.90;;;;;;5035149;28;20537;-56
2022/06/12 06:47:13;;;;;;;7.30;6.60;;;20.50;99.90;;;;;;5035175;28;20489;-56
2022/06/12 06:49:40;;;;;;;7.23;6.50;;;20.60;99.90;;;;;;5034860;28;20470;-56
2022/06/12 06:52:09;;;;;;;6.90;6.20;;;20.70;99.90;;;;;;5034895;28;20561;-56
2022/06/12 06:54:36;;;;;;;7.63;6.33;;;20.90;99.90;;;;;;5034787;28;20541;-56
2022/06/12 06:57:04;;;;;;;12.23;6.13;;;21.00;99.90;;;;;;5034700;28;20904;-56
2022/06/12 06:59:31;;;;;;;7.30;6.60;;;21.20;99.90;;;;;;5034613;28;20946;-56
2022/06/12 07:01:58;;;;;;;6.27;5.73;;;21.80;99.90;;;;;;5034783;28;20533;-57
2022/06/12 07:04:26;;;;;;;6.73;6.13;;;22.60;99.90;;;;;;5034493;28;20446;-57
2022/06/12 07:06:53;;;;;;;9.80;6.03;;;23.20;99.90;;;;;;5034951;28;20476;-57
2022/06/12 07:09:22;;;;;;;5.90;5.33;;;23.60;99.90;;;;;;5034884;28;20478;-57
2022/06/12 07:11:49;;;;;;;5.93;5.53;;;24.30;99.90;;;;;;5034460;28;20513;-57
2022/06/12 07:14:16;;;;;;;6.93;5.30;;;24.50;99.90;;;;;;5034652;28;20504;-57
2022/06/12 07:16:44;;;;;;;6.37;5.50;;;24.90;99.90;;;;;;5034464;28;20454;-57
2022/06/12 07:19:11;;;;;;;5.47;4.90;;;25.20;99.90;;;;;;5034535;28;20470;-57
2022/06/12 07:21:38;;;;;;;7.00;5.20;;;25.80;99.90;;;;;;5034462;28;20525;-57
2022/06/12 07:24:06;;;;;;;6.60;5.33;;;25.80;99.90;;;;;;5034449;28;20478;-57
2022/06/12 07:26:38;;;;;;;5.80;5.17;;;26.30;99.90;;;;;;5034056;28;20461;-57
2022/06/12 07:29:06;;;;;;;5.53;4.73;;;27.00;99.90;;;;;;5034341;28;20468;-57
2022/06/12 07:31:34;;;;;;;8.13;5.27;;;27.00;99.90;;;;;;5034350;28;20482;-57
2022/06/12 07:34:02;;;;;;;6.00;5.20;;;26.90;99.90;;;;;;5033913;28;20450;-57
2022/06/12 07:36:30;;;;;;;6.23;5.50;;;27.10;99.90;;;;;;5034134;28;20450;-57
2022/06/12 07:38:58;;;;;;;6.60;4.70;;;27.40;99.90;;;;;;5034063;28;20505;-58
2022/06/12 07:41:25;;;;;;;5.90;5.33;;;27.30;99.90;;;;;;5034304;28;20537;-57
2022/06/12 07:43:54;;;;;;;5.40;4.87;;;27.60;99.40;;;;;;5033894;28;20811;-57
2022/06/12 07:46:22;;;;;;;5.43;4.93;;;28.00;99.50;;;;;;5034188;28;20454;-57
2022/06/12 07:48:50;;;;;;;6.60;5.47;;;28.40;98.90;;;;;;5033750;28;20466;-57
2022/06/12 07:51:20;;;;;;;6.93;4.73;;;28.80;97.80;;;;;;5034146;28;20489;-57
2022/06/12 07:53:50;;;;;;;5.10;4.60;;;29.10;97.30;;;;;;5033896;28;20505;-57
2022/06/12 07:56:18;;;;;;;4.67;4.33;;;29.60;97.70;;;;;;5033937;28;20862;-57
2022/06/12 07:58:46;;;;;;;5.93;4.27;;;29.80;95.90;;;;;;5033825;28;20552;-56
2022/06/12 08:01:18;;;;;;;5.60;5.00;;;29.80;95.50;;;;;;5033649;28;20795;-57
2022/06/12 08:03:46;;;;;;;4.30;3.93;;;29.40;95.90;;;;;;5033768;28;20518;-57
2022/06/12 08:06:13;;;;;;;4.70;4.10;;;29.40;95.90;;;;;;5033778;28;20450;-56
2022/06/12 08:08:40;;;;;;;5.17;4.43;;;30.00;95.30;;;;;;5033652;28;20462;-56
2022/06/12 08:11:08;;;;;;;5.90;4.60;;;30.30;94.30;;;;;;5033308;28;20517;-56
2022/06/12 08:13:35;;;;;;;5.30;4.80;;;30.20;93.40;;;;;;5033291;28;20488;-56
2022/06/12 08:16:03;;;;;;;4.33;3.53;;;30.20;93.20;;;;;;5033764;28;20878;-56
2022/06/12 08:18:31;;;;;;;10.30;4.57;;;29.70;93.20;;;;;;5033126;28;20533;-56
2022/06/12 08:21:02;;;;;;;4.97;3.83;;;29.90;93.70;;;;;;5033333;28;20450;-56
2022/06/12 08:23:34;;;;;;;4.83;3.93;;;29.80;92.70;;;;;;5033508;28;20485;-56
2022/06/12 08:26:04;;;;;;;5.47;4.60;;;30.10;92.60;;;;;;5033451;28;20823;-56
2022/06/12 08:28:35;;;;;;;5.00;4.47;;;30.60;93.10;;;;;;5033056;28;20446;-57
2022/06/12 08:31:03;;;;;;;5.03;4.57;;;30.60;91.30;;;;;;5033580;28;20509;-57
2022/06/12 08:33:34;;;;;;;5.20;4.73;;;30.30;91.50;;;;;;5032988;28;20914;-57
2022/06/12 08:36:01;;;;;;;4.50;4.10;;;30.10;90.50;;;;;;5033195;28;20541;-57
2022/06/12 08:38:29;;;;;;;4.97;4.07;;;30.50;90.50;;;;;;5033081;28;20501;-58
2022/06/12 08:41:04;;;;;;;5.10;4.20;;;30.90;91.10;;;;;;5033457;28;20849;-57
2022/06/12 08:43:37;;;;;;;5.23;4.13;;;31.10;90.40;;;;;;5032984;28;20426;-57
2022/06/12 08:46:11;;;;;;;5.03;4.20;;;31.70;88.80;;;;;;5033411;28;20516;-57
2022/06/12 08:48:48;;;;;;;4.40;4.00;;;32.40;88.80;;;;;;5033382;28;20521;-57
2022/06/12 08:51:23;;;;;;;4.83;4.27;;;32.20;86.50;;;;;;5032960;28;20413;-57
2022/06/12 08:54:02;;;;;;;6.47;4.37;;;32.20;85.30;;;;;;5033262;28;20465;-57
2022/06/12 08:56:36;;;;;;;4.40;4.00;;;32.50;84.20;;;;;;5032798;28;20508;-57
2022/06/12 08:59:10;;;;;;;5.63;3.90;;;32.70;82.50;;;;;;5033431;28;20884;-57
2022/06/12 09:01:41;;;;;;;4.20;3.80;;;32.70;80.30;;;;;;5033321;28;20457;-57
2022/06/12 09:04:12;;;;;;;4.90;4.40;;;32.40;81.10;;;;;;5032722;28;20485;-57
2022/06/12 09:06:46;;;;;;;4.20;3.90;;;32.50;80.60;;;;;;5033265;28;20929;-57
2022/06/12 09:09:22;;;;;;;5.17;3.93;;;32.30;78.90;;;;;;5037150;28;20478;-57
2022/06/12 09:11:50;;;;;;;7.10;4.07;;;;;;;;;;5035613;28;20473;-57
2022/06/12 09:14:33;;;;;;;4.80;4.13;;;31.40;78.60;;;;;;5036927;28;20460;-57
2022/06/12 09:17:12;;;;;;;7.93;5.23;;;31.50;79.10;;;;;;5036661;28;20429;-57
2022/06/12 09:19:51;;;;;;;5.07;3.70;;;32.80;78.90;;;;;;5037043;28;20468;-57
2022/06/12 09:22:23;;;;;;;4.47;4.03;;;33.20;77.20;;;;;;5036875;28;20520;-57
2022/06/12 09:24:59;;;;;;;4.93;3.83;;;33.40;76.60;;;;;;5036967;28;20513;-57
2022/06/12 09:27:34;;;;;;;5.03;3.80;;;33.80;74.70;;;;;;5016776;28;20422;-57
2022/06/12 09:30:08;;;;;;;4.23;3.80;;;33.60;73.00;;;;;;5016608;28;20548;-57
2022/06/12 09:32:47;;;;;;;4.70;3.70;;;33.60;72.30;;;;;;5016681;28;20466;-57
2022/06/12 09:35:30;;;;;;;8.13;4.23;;;33.20;70.40;;;;;;5016611;28;20926;-57
2022/06/12 09:38:19;;;;;;;3.30;3.00;;;33.10;72.40;;;;;;5016477;28;20464;-57
2022/06/12 09:41:07;;;;;;;4.13;3.73;;;33.90;71.20;;;;;;5016229;28;21012;-57
2022/06/12 09:43:40;;;;;;;6.73;3.80;;;34.00;68.00;;;;;;5016812;28;20481;-57
2022/06/12 09:46:27;;;;;;;3.93;3.27;;;34.10;67.90;;;;;;5016762;28;20437;-57
2022/06/12 09:49:03;;;;;;;4.43;3.53;;;33.60;67.50;;;;;;5016242;28;20512;-57
2022/06/12 09:51:48;;;;;;;4.07;3.67;;;32.60;65.50;;;;;;5016678;28;20513;-57
2022/06/12 09:54:40;;;;;;;5.10;3.40;;;32.80;66.10;;;;;;5016530;28;20556;-57
2022/06/12 09:57:18;;;;;;;4.83;4.43;;;33.60;67.80;;;;;;5033289;28;20489;-57
2022/06/12 09:59:50;;;;;;;3.70;2.90;;;33.80;66.30;;;;;;5035775;28;21007;-57
2022/06/12 10:02:23;;;;;;;3.50;3.20;;;34.10;67.90;;;;;;5035957;28;20469;-57
2022/06/12 10:04:57;;;;;;;3.73;3.07;;;34.20;65.00;;;;;;5035977;28;20449;-57
2022/06/12 10:07:31;;;;;;;3.50;3.13;;;34.10;65.20;;;;;;5035973;28;20785;-57
2022/06/12 10:10:03;;;;;;;3.97;3.10;;;34.30;64.30;;;;;;5035527;28;20984;-57
2022/06/12 10:12:36;;;;;;;3.60;3.30;;;34.50;65.70;;;;;;5035537;28;20516;-57
2022/06/12 10:15:10;;;;;;;5.00;3.60;;;34.10;62.60;;;;;;5036033;28;20441;-57
2022/06/12 10:17:44;;;;;;;3.77;3.47;;;33.80;63.90;;;;;;5035747;28;20512;-57
2022/06/12 10:20:15;;;;;;;4.73;2.90;;;34.00;64.80;;;;;;5035079;28;20488;-57
2022/06/12 10:22:46;;;;;;;4.10;3.43;;;34.20;63.10;;;;;;5035494;28;20553;-57
2022/06/12 10:25:19;;;;;;;3.40;3.20;;;34.60;63.50;;;;;;5035664;28;20560;-57
2022/06/12 10:27:49;;;;;;;4.63;3.60;;;34.50;62.70;;;;;;5035727;28;20430;-57
2022/06/12 10:30:26;;;;;;;3.43;3.13;;;34.80;62.30;;;;;;5035243;28;20842;-57
2022/06/12 10:32:55;;;;;;;4.57;3.57;;;34.60;59.70;;;;;;5035300;28;20831;-57
2022/06/12 10:35:26;;;;;;;3.93;3.53;;;34.30;60.80;;;;;;5035310;28;20540;-57
2022/06/12 10:38:06;;;;;;;7.10;3.43;;;33.70;60.10;;;;;;5035569;28;20760;-57
2022/06/12 10:40:35;;;;;;;3.77;3.47;;;;;;;;;;5035091;28;20504;-57
2022/06/12 10:43:05;;;;;;;4.93;3.33;;;34.90;60.00;;;;;;5035475;28;20470;-57
2022/06/12 10:45:35;;;;;;;3.63;3.33;;;33.90;59.80;;;;;;5035343;28;20466;-57
2022/06/12 10:48:20;;;;;;;4.33;3.97;;;33.80;61.10;;;;;;5035121;28;20839;-57
2022/06/12 10:50:53;;;;;;;4.83;4.00;;;34.20;59.80;;;;;;5035228;28;20828;-57
2022/06/12 10:53:24;;;;;;;5.40;3.43;;;33.10;60.60;;;;;;5034821;28;20549;-57
2022/06/12 10:55:57;;;;;;;4.93;3.90;;;;;;;;;;5028307;28;20541;-58
2022/06/12 10:58:51;;;;;;;4.00;3.60;;;31.70;61.70;;;;;;5014963;28;20782;-57
2022/06/12 11:01:27;;;;;;;4.20;3.50;;;32.10;63.20;;;;;;5015164;28;20518;-57
2022/06/12 11:04:04;;;;;;;5.23;4.10;;;31.70;64.80;;;;;;5015250;28;20519;-57
2022/06/12 11:06:39;;;;;;;4.00;3.60;;;31.20;63.40;;;;;;5014948;28;20981;-57
2022/06/12 11:09:18;;;;;;;5.83;3.63;;;31.10;65.60;;;;;;5014924;28;20478;-57
2022/06/12 11:12:02;;;;;;;3.53;3.23;;;31.60;63.50;;;;;;5014785;28;20566;-57
2022/06/12 11:14:43;;;;;;;4.40;4.00;;;32.30;65.70;;;;;;5014812;28;20907;-58
2022/06/12 11:17:36;;;;;;;3.90;3.37;;;32.20;63.20;;;;;;5014612;28;20470;-57
2022/06/12 11:20:16;;;;;;;6.13;4.90;;;31.30;61.30;;;;;;5014612;28;20867;-57
2022/06/12 11:22:56;;;;;;;3.97;3.53;;;29.90;63.60;;;;;;5014923;28;20518;-59
2022/06/12 11:25:41;;;;;;;3.77;3.43;;;30.30;64.60;;;;;;5017879;28;20442;-57
2022/06/12 11:28:22;;;;;;;4.00;3.60;;;31.40;64.70;;;;;;5034623;28;20513;-57
2022/06/12 11:30:55;;;;;;;3.73;3.43;;;31.50;60.50;;;;;;5034232;28;20518;-57
2022/06/12 11:33:37;;;;;;;3.23;3.00;;;32.10;62.40;;;;;;5034511;28;20476;-57
2022/06/12 11:36:12;;;;;;;4.37;3.50;;;32.30;62.30;;;;;;5034303;28;20431;-57
2022/06/12 11:39:03;;;;;;;3.27;2.97;;;32.60;60.00;;;;;;5034430;28;20453;-57
2022/06/12 11:41:46;;;;;;;3.20;2.90;;;32.70;59.70;;;;;;5034406;28;20475;-57
2022/06/12 11:44:28;;;;;;;4.07;3.10;;;32.70;59.90;;;;;;5034034;28;20798;-58
2022/06/12 11:47:06;;;;;;;4.37;3.03;;;32.20;60.00;;;;;;5033881;28;20457;-58
2022/06/12 11:49:42;;;;;;;3.20;2.90;;;33.10;59.60;;;;;;5034081;28;20472;-58
2022/06/12 11:52:30;;;;;;;5.50;3.40;;;33.30;58.70;;;;;;5033994;28;20913;-58
2022/06/12 11:55:16;;;;;;;4.80;3.00;;;33.10;59.60;;;;;;5034012;28;20554;-58
2022/06/12 11:57:56;;;;;;;4.23;3.20;;;33.50;58.40;;;;;;5033976;28;20845;-58
2022/06/12 12:00:33;;;;;;;3.50;3.20;;;33.20;59.60;;;;;;5033978;28;20489;-58
2022/06/12 12:03:17;;;;;;;3.07;2.87;;;33.90;58.50;;;;;;5034012;28;20425;-57
2022/06/12 12:05:53;;;;;;;4.20;3.00;;;33.80;58.50;;;;;;5033521;28;20921;-57
2022/06/12 12:08:40;;;;;;;3.10;2.80;;;34.20;57.80;;;;;;5033479;28;20791;-58
2022/06/12 12:11:11;;;;;;;4.30;3.13;;;34.30;57.40;;;;;;5033452;28;20539;-58
2022/06/12 12:13:42;;;;;;;5.87;3.10;;;34.30;56.80;;;;;;5033318;28;20557;-58
2022/06/12 12:16:19;;;;;;;6.33;3.43;;;34.50;56.90;;;;;;5033842;28;20434;-58
2022/06/12 12:18:50;;;;;;;2.70;2.50;;;33.90;57.00;;;;;;5033412;28;21039;-57
2022/06/12 12:21:30;;;;;;;5.93;3.07;;;33.80;56.40;;;;;;5033518;28;20432;-58
2022/06/12 12:23:58;;;;;;;2.87;2.57;;;33.80;57.80;;;;;;5033306;28;20429;-57
2022/06/12 12:26:31;;;;;;;3.30;3.00;;;33.90;57.70;;;;;;5033257;28;20533;-58
2022/06/12 12:29:07;;;;;;;3.23;2.90;;;33.50;57.40;;;;;;5033278;28;20600;-58
2022/06/12 12:31:36;;;;;;;6.20;3.20;;;33.60;57.50;;;;;;5033193;28;20918;-57
2022/06/12 12:34:07;;;;;;;4.00;3.17;;;33.80;58.00;;;;;;5033507;28;20571;-57
2022/06/12 12:42:30;;;;;;;3.90;3.60;;;;;;;;;;5032489;28;20429;-57
2022/06/12 12:45:12;;;;;;;4.27;3.33;;;32.20;59.30;;;;;;5033071;28;20941;-57
2022/06/12 12:47:39;;;;;;;4.57;3.33;;;32.90;59.20;;;;;;5033169;28;20434;-57
2022/06/12 12:50:14;;;;;;;3.90;3.00;;;33.30;58.80;;;;;;5032819;28;20484;-57
2022/06/12 12:52:45;;;;;;;3.23;2.93;;;33.60;58.70;;;;;;5033288;28;20437;-57
2022/06/12 12:55:25;;;;;;;3.40;3.10;;;32.90;57.20;;;;;;5033078;28;20466;-57
2022/06/12 12:57:54;;;;;;;3.10;2.90;;;32.00;59.40;;;;;;5033577;28;20430;-57
2022/06/12 13:00:30;;;;;;;6.07;3.30;;;31.50;59.40;;;;;;5032865;28;20472;-57
2022/06/12 13:03:00;;;;;;;4.63;3.40;;;31.00;59.70;;;;;;5033010;28;20477;-56
2022/06/12 13:05:40;;;;;;;3.73;3.53;;;30.80;61.20;;;;;;5033131;28;20482;-57
2022/06/12 13:08:20;;;;;;;3.90;3.60;;;30.70;62.00;;;;;;5032858;28;20464;-57
2022/06/12 13:11:00;;;;;;;3.20;2.90;;;30.70;61.40;;;;;;5032819;28;20821;-58
2022/06/12 13:13:53;;;;;;;4.07;3.13;;;30.90;62.30;;;;;;5033065;28;20476;-57
2022/06/12 13:16:31;;;;;;;3.60;3.27;;;30.70;59.70;;;;;;5033159;28;20436;-57
2022/06/12 13:19:21;;;;;;;9.83;3.90;;;29.90;61.50;;;;;;5032845;28;20549;-57
2022/06/12 13:22:03;;;;;;;3.63;3.33;;;30.20;62.10;;;;;;5032632;28;20984;-57
2022/06/12 13:24:35;;;;;;;4.90;3.57;;;30.00;62.10;;;;;;5032667;28;20509;-57
2022/06/12 13:27:18;;;;;;;3.63;3.33;;;29.80;63.40;;;;;;5032830;28;20664;-57
2022/06/12 13:29:47;;;;;;;3.57;3.20;;;29.60;63.20;;;;;;5032855;28;20466;-57
2022/06/12 13:32:25;;;;;;;3.40;3.10;;;29.70;64.50;;;;;;5032725;28;21018;-57
2022/06/12 13:34:57;;;;;;;4.40;3.63;;;29.40;65.40;;;;;;5032727;28;20556;-57